createdAt,value
2023-02-07T00:00:43.537Z,2.00
2023-02-07T00:01:45.370Z,1.88
2023-02-07T00:02:49.080Z,2.73
2023-02-07T00:03:51.466Z,2.63
2023-02-07T00:04:53.240Z,2.53
2023-02-07T00:05:55.505Z,2.95
2023-02-07T00:06:57.262Z,1.75
2023-02-07T00:07:59.041Z,2.80
2023-02-07T00:09:02.824Z,1.90
2023-02-07T00:10:06.510Z,2.30
2023-02-07T00:11:11.284Z,1.60
2023-02-07T00:12:13.183Z,3.30
2023-02-07T00:13:15.049Z,1.77
2023-02-07T00:14:16.971Z,1.88
2023-02-07T00:15:18.910Z,2.95
2023-02-07T00:16:21.877Z,1.90
2023-02-07T00:17:23.703Z,1.77
2023-02-07T00:18:26.978Z,1.50
2023-02-07T00:19:28.751Z,3.60
2023-02-07T00:20:30.541Z,1.63
2023-02-07T00:21:32.396Z,3.47
2023-02-07T00:22:34.580Z,2.30
2023-02-07T00:23:37.418Z,2.23
2023-02-07T00:24:39.738Z,2.08
2023-02-07T00:25:45.698Z,2.10
2023-02-07T00:26:47.554Z,2.67
2023-02-07T00:27:49.670Z,1.75
2023-02-07T00:28:53.035Z,2.80
2023-02-07T00:29:55.688Z,1.73
2023-02-07T00:31:09.124Z,3.08
2023-02-07T00:32:11.201Z,1.73
2023-02-07T00:33:13.028Z,3.75
2023-02-07T00:34:15.658Z,3.07
2023-02-07T00:35:18.896Z,3.13
2023-02-07T00:36:23.394Z,2.88
2023-02-07T00:37:25.236Z,2.58
2023-02-07T00:38:27.791Z,3.88
2023-02-07T00:39:29.698Z,3.13
2023-02-07T00:40:32.293Z,1.98
2023-02-07T00:41:34.378Z,3.22
2023-02-07T00:42:36.902Z,2.33
2023-02-07T00:43:38.614Z,2.53
2023-02-07T00:44:40.899Z,1.57
2023-02-07T00:45:42.670Z,2.00
2023-02-07T00:46:44.531Z,3.83
2023-02-07T00:47:46.378Z,3.13
2023-02-07T00:48:48.198Z,3.17
2023-02-07T00:49:50.109Z,2.30
2023-02-07T00:50:52.180Z,3.13
2023-02-07T00:51:54.044Z,3.42
2023-02-07T00:52:55.791Z,2.00
2023-02-07T00:53:58.929Z,3.05
2023-02-07T00:55:00.795Z,2.10
2023-02-07T00:56:02.937Z,3.75
2023-02-07T00:57:05.645Z,5.22
2023-02-07T00:58:07.388Z,3.33
2023-02-07T00:59:10.469Z,3.80
2023-02-07T01:00:12.715Z,2.30
2023-02-07T01:01:14.986Z,3.40
2023-02-07T01:02:16.829Z,3.38
2023-02-07T01:03:19.336Z,3.28
2023-02-07T01:04:21.123Z,3.38
2023-02-07T01:05:23.920Z,3.23
2023-02-07T01:06:27.887Z,3.88
2023-02-07T01:07:30.354Z,3.45
2023-02-07T01:08:32.384Z,1.85
2023-02-07T01:09:34.290Z,3.22
2023-02-07T01:10:39.104Z,3.20
2023-02-07T01:11:40.949Z,2.47
2023-02-07T01:12:42.760Z,3.85
2023-02-07T01:13:44.839Z,2.70
2023-02-07T01:14:46.661Z,2.70
2023-02-07T01:15:48.982Z,1.87
2023-02-07T01:16:51.125Z,2.50
2023-02-07T01:17:53.216Z,2.88
2023-02-07T01:18:55.423Z,2.72
2023-02-07T01:20:01.015Z,3.30
2023-02-07T01:21:13.213Z,2.57
2023-02-07T01:22:14.994Z,2.20
2023-02-07T01:23:16.862Z,3.45
2023-02-07T01:24:19.172Z,2.55
2023-02-07T01:25:21.096Z,4.05
2023-02-07T01:26:25.061Z,3.93
2023-02-07T01:27:26.856Z,3.30
2023-02-07T01:28:28.723Z,2.72
2023-02-07T01:29:31.204Z,2.90
2023-02-07T01:30:33.129Z,2.65
2023-02-07T01:31:35.699Z,2.77
2023-02-07T01:32:37.607Z,3.15
2023-02-07T01:33:39.377Z,2.30
2023-02-07T01:34:41.320Z,4.78
2023-02-07T01:35:46.596Z,2.60
2023-02-07T01:36:48.339Z,2.50
2023-02-07T01:37:50.587Z,2.20
2023-02-07T01:38:54.360Z,3.88
2023-02-07T01:39:56.126Z,3.90
2023-02-07T01:40:58.016Z,2.97
2023-02-07T01:41:59.824Z,2.13
2023-02-07T01:43:02.095Z,3.15
2023-02-07T01:44:27.823Z,3.33
2023-02-07T01:45:47.843Z,4.47
2023-02-07T01:46:52.065Z,3.45
2023-02-07T01:47:55.398Z,3.83
2023-02-07T01:49:08.512Z,2.63
2023-02-07T01:50:10.787Z,2.95
2023-02-07T01:51:12.857Z,3.25
2023-02-07T01:52:31.191Z,3.45
2023-02-07T01:53:37.128Z,3.53
2023-02-07T01:54:40.370Z,2.47
2023-02-07T01:55:45.161Z,3.33
2023-02-07T01:56:56.750Z,3.13
2023-02-07T01:58:00.630Z,2.97
2023-02-07T01:59:06.560Z,2.83
2023-02-07T02:00:09.326Z,3.95
2023-02-07T02:01:22.585Z,3.45
2023-02-07T02:02:27.776Z,2.95
2023-02-07T02:03:29.668Z,3.47
2023-02-07T02:04:31.775Z,3.40
2023-02-07T02:05:36.247Z,2.50
2023-02-07T02:06:40.217Z,3.38
2023-02-07T02:07:43.677Z,2.55
2023-02-07T02:08:46.522Z,3.47
2023-02-07T02:09:48.293Z,2.87
2023-02-07T02:11:16.041Z,2.97
2023-02-07T02:12:31.966Z,4.13
2023-02-07T02:14:07.411Z,3.60
2023-02-07T02:15:35.789Z,3.03
2023-02-07T02:16:53.114Z,2.67
2023-02-07T02:18:19.132Z,2.60
2023-02-07T02:19:38.306Z,3.05
2023-02-07T02:20:40.074Z,4.13
2023-02-07T02:21:54.633Z,2.88
2023-02-07T02:23:33.968Z,3.03
2023-02-07T02:24:53.443Z,4.45
2023-02-07T02:26:14.076Z,3.10
2023-02-07T02:27:53.325Z,3.50
2023-02-07T02:29:18.832Z,2.88
2023-02-07T02:30:51.495Z,3.00
2023-02-07T02:32:17.697Z,4.10
2023-02-07T02:33:50.850Z,2.30
2023-02-07T02:35:03.356Z,3.17
2023-02-07T02:36:19.400Z,2.90
2023-02-07T02:37:40.817Z,5.07
2023-02-07T02:39:04.813Z,2.70
2023-02-07T02:40:16.987Z,3.90
2023-02-07T02:41:23.958Z,2.53
2023-02-07T02:42:45.339Z,3.28
2023-02-07T02:43:53.245Z,3.03
2023-02-07T02:45:01.120Z,2.38
2023-02-07T02:46:22.516Z,3.08
2023-02-07T02:47:26.227Z,2.88
2023-02-07T02:48:30.984Z,3.40
2023-02-07T02:49:34.899Z,3.03
2023-02-07T02:50:37.170Z,4.22
2023-02-07T02:51:39.145Z,3.45
2023-02-07T02:52:50.702Z,3.30
2023-02-07T02:53:59.069Z,3.30
2023-02-07T02:55:09.329Z,3.20
2023-02-07T02:56:45.387Z,3.03
2023-02-07T02:58:08.493Z,3.25
2023-02-07T02:59:25.915Z,2.45
2023-02-07T03:00:44.666Z,4.35
2023-02-07T03:01:54.185Z,3.57
2023-02-07T03:03:07.474Z,2.80
2023-02-07T03:04:21.561Z,3.28
2023-02-07T03:05:41.552Z,3.53
2023-02-07T03:07:05.414Z,3.75
2023-02-07T03:08:27.745Z,3.53
2023-02-07T03:09:46.404Z,3.28
2023-02-07T03:10:56.520Z,3.33
2023-02-07T03:12:09.718Z,3.55
2023-02-07T03:13:50.319Z,3.35
2023-02-07T03:15:04.435Z,3.77
2023-02-07T03:16:21.315Z,4.55
2023-02-07T03:17:28.761Z,3.13
2023-02-07T03:18:39.271Z,2.90
2023-02-07T03:19:50.708Z,3.22
2023-02-07T03:21:05.868Z,3.17
2023-02-07T03:22:13.998Z,3.10
2023-02-07T03:23:19.619Z,4.70
2023-02-07T03:24:31.772Z,3.85
2023-02-07T03:25:33.950Z,4.18
2023-02-07T03:26:37.652Z,3.20
2023-02-07T03:27:41.417Z,4.60
2023-02-07T03:28:44.514Z,3.88
2023-02-07T03:29:48.743Z,3.90
2023-02-07T03:30:51.928Z,3.17
2023-02-07T03:32:00.572Z,3.53
2023-02-07T03:33:11.768Z,3.45
2023-02-07T03:34:25.781Z,4.75
2023-02-07T03:35:35.566Z,3.90
2023-02-07T03:36:46.005Z,4.13
2023-02-07T03:37:59.111Z,4.00
2023-02-07T03:39:02.730Z,3.53
2023-02-07T03:40:06.389Z,3.30
2023-02-07T03:41:17.028Z,4.40
2023-02-07T03:42:48.307Z,3.75
2023-02-07T03:43:51.351Z,2.87
2023-02-07T03:44:55.320Z,3.78
2023-02-07T03:45:57.592Z,4.60
2023-02-07T03:47:00.002Z,2.42
2023-02-07T03:48:01.746Z,3.80
2023-02-07T03:49:04.347Z,4.57
2023-02-07T03:50:06.616Z,3.85
2023-02-07T03:51:10.143Z,3.17
2023-02-07T03:52:11.881Z,3.10
2023-02-07T03:53:13.814Z,3.50
2023-02-07T03:54:15.732Z,4.20
2023-02-07T03:55:17.732Z,3.05
2023-02-07T03:56:19.522Z,3.38
2023-02-07T03:57:21.457Z,3.67
2023-02-07T03:58:23.217Z,3.78
2023-02-07T03:59:25.047Z,2.30
2023-02-07T04:00:27.188Z,3.30
2023-02-07T04:01:29.204Z,3.78
2023-02-07T04:02:31.026Z,3.38
2023-02-07T04:03:34.178Z,3.03
2023-02-07T04:04:36.225Z,3.53
2023-02-07T04:05:38.586Z,4.13
2023-02-07T04:06:42.180Z,3.22
2023-02-07T04:07:44.130Z,3.08
2023-02-07T04:08:45.955Z,4.10
2023-02-07T04:09:47.737Z,3.73
2023-02-07T04:11:10.242Z,2.47
2023-02-07T04:12:12.215Z,3.58
2023-02-07T04:13:14.716Z,3.25
2023-02-07T04:14:20.119Z,4.00
2023-02-07T04:15:22.178Z,2.93
2023-02-07T04:16:25.157Z,3.22
2023-02-07T04:17:28.140Z,3.50
2023-02-07T04:18:31.274Z,4.32
2023-02-07T04:19:33.120Z,3.13
2023-02-07T04:20:35.000Z,3.20
2023-02-07T04:21:36.753Z,3.00
2023-02-07T04:22:39.885Z,3.08
2023-02-07T04:23:41.852Z,3.65
2023-02-07T04:24:43.663Z,3.03
2023-02-07T04:25:45.639Z,2.53
2023-02-07T04:26:49.691Z,4.07
2023-02-07T04:27:51.971Z,3.38
2023-02-07T04:28:53.980Z,2.85
2023-02-07T04:29:56.436Z,3.05
2023-02-07T04:30:58.306Z,2.30
2023-02-07T04:32:00.204Z,2.30
2023-02-07T04:33:02.025Z,3.50
2023-02-07T04:34:05.962Z,2.78
2023-02-07T04:35:08.667Z,2.97
2023-02-07T04:36:10.543Z,4.33
2023-02-07T04:37:12.296Z,3.05
2023-02-07T04:38:14.359Z,3.03
2023-02-07T04:39:16.147Z,3.95
2023-02-07T04:40:17.906Z,2.63
2023-02-07T04:41:19.787Z,2.67
2023-02-07T04:42:21.579Z,3.33
2023-02-07T04:43:23.653Z,3.42
2023-02-07T04:44:25.476Z,3.50
2023-02-07T04:45:27.376Z,2.30
2023-02-07T04:46:29.273Z,2.67
2023-02-07T04:47:31.488Z,3.53
2023-02-07T04:48:34.221Z,4.90
2023-02-07T04:49:36.101Z,3.55
2023-02-07T04:50:37.835Z,2.47
2023-02-07T04:51:39.580Z,2.80
2023-02-07T04:52:41.502Z,2.80
2023-02-07T04:53:43.746Z,3.45
2023-02-07T04:54:46.129Z,3.38
2023-02-07T04:55:48.901Z,2.42
2023-02-07T04:56:50.658Z,3.00
2023-02-07T04:57:52.466Z,3.60
2023-02-07T04:58:54.307Z,3.50
2023-02-07T04:59:56.200Z,3.00
2023-02-07T05:00:58.318Z,3.95
2023-02-07T05:02:00.156Z,3.17
2023-02-07T05:03:02.082Z,2.90
2023-02-07T05:04:03.935Z,3.45
2023-02-07T05:05:05.978Z,2.55
2023-02-07T05:06:07.866Z,2.50
2023-02-07T05:07:09.681Z,2.53
2023-02-07T05:08:12.699Z,3.05
2023-02-07T05:09:14.732Z,4.10
2023-02-07T05:10:16.869Z,3.00
2023-02-07T05:11:19.605Z,2.67
2023-02-07T05:12:21.658Z,2.90
2023-02-07T05:13:24.688Z,2.65
2023-02-07T05:14:26.504Z,4.43
2023-02-07T05:15:28.606Z,3.80
2023-02-07T05:16:30.381Z,4.05
2023-02-07T05:17:34.919Z,2.73
2023-02-07T05:18:36.696Z,4.30
2023-02-07T05:19:38.774Z,2.40
2023-02-07T05:20:40.511Z,2.92
2023-02-07T05:21:42.541Z,2.45
2023-02-07T05:22:44.416Z,3.50
2023-02-07T05:23:46.294Z,3.15
2023-02-07T05:24:48.192Z,4.03
2023-02-07T05:25:50.050Z,3.17
2023-02-07T05:26:51.818Z,2.97
2023-02-07T05:27:53.767Z,2.53
2023-02-07T05:28:55.649Z,2.58
2023-02-07T05:29:59.470Z,3.92
2023-02-07T05:31:01.443Z,2.97
2023-02-07T05:32:22.075Z,3.38
2023-02-07T05:33:23.848Z,3.70
2023-02-07T05:34:25.626Z,2.55
2023-02-07T05:35:28.005Z,3.33
2023-02-07T05:36:29.860Z,3.03
2023-02-07T05:37:31.701Z,2.42
2023-02-07T05:38:33.517Z,2.77
2023-02-07T05:39:35.317Z,3.75
2023-02-07T05:40:38.565Z,2.60
2023-02-07T05:41:40.369Z,2.00
2023-02-07T05:42:42.305Z,3.45
2023-02-07T05:43:44.069Z,2.47
2023-02-07T05:44:45.929Z,2.65
2023-02-07T05:45:47.704Z,3.50
2023-02-07T05:46:51.766Z,2.45
2023-02-07T05:47:54.493Z,3.47
2023-02-07T05:48:56.473Z,2.77
2023-02-07T05:49:58.295Z,3.08
2023-02-07T05:51:00.134Z,3.60
2023-02-07T05:52:01.964Z,3.25
2023-02-07T05:53:04.700Z,3.95
2023-02-07T05:54:06.515Z,2.63
2023-02-07T05:55:09.254Z,2.63
2023-02-07T05:56:11.130Z,3.63
2023-02-07T05:57:12.976Z,2.92
2023-02-07T05:58:14.836Z,2.63
2023-02-07T05:59:16.845Z,3.63
2023-02-07T06:00:19.828Z,3.80
2023-02-07T06:01:21.652Z,3.95
2023-02-07T06:02:23.845Z,3.15
2023-02-07T06:03:25.815Z,3.20
2023-02-07T06:04:28.777Z,2.60
2023-02-07T06:05:32.053Z,2.70
2023-02-07T06:06:33.957Z,3.30
2023-02-07T06:07:35.802Z,3.63
2023-02-07T06:08:37.532Z,2.88
2023-02-07T06:09:39.328Z,2.53
2023-02-07T06:10:41.367Z,3.10
2023-02-07T06:11:43.134Z,3.30
2023-02-07T06:12:45.106Z,3.08
2023-02-07T06:13:46.936Z,3.42
2023-02-07T06:14:48.741Z,2.27
2023-02-07T06:15:50.510Z,3.08
2023-02-07T06:16:52.317Z,2.90
2023-02-07T06:17:54.126Z,3.28
2023-02-07T06:18:55.892Z,3.00
2023-02-07T06:19:57.878Z,2.83
2023-02-07T06:20:59.707Z,3.13
2023-02-07T06:22:01.544Z,2.42
2023-02-07T06:23:03.439Z,3.92
2023-02-07T06:24:05.711Z,4.30
2023-02-07T06:25:11.870Z,2.13
2023-02-07T06:26:13.937Z,1.88
2023-02-07T06:27:15.745Z,2.47
2023-02-07T06:28:17.864Z,3.15
2023-02-07T06:29:20.271Z,3.10
2023-02-07T06:30:22.219Z,2.23
2023-02-07T06:31:24.470Z,3.00
2023-02-07T06:32:26.505Z,3.85
2023-02-07T06:33:28.448Z,2.05
2023-02-07T06:34:30.209Z,2.17
2023-02-07T06:35:32.435Z,4.20
2023-02-07T06:36:34.466Z,3.63
2023-02-07T06:37:36.272Z,3.50
2023-02-07T06:38:38.036Z,3.15
2023-02-07T06:39:40.035Z,2.58
2023-02-07T06:40:42.347Z,2.87
2023-02-07T06:41:44.285Z,4.03
2023-02-07T06:42:46.266Z,3.45
2023-02-07T06:43:48.081Z,3.67
2023-02-07T06:44:50.066Z,3.05
2023-02-07T06:45:52.581Z,2.47
2023-02-07T06:46:54.462Z,2.47
2023-02-07T06:47:56.169Z,4.15
2023-02-07T06:48:58.017Z,2.83
2023-02-07T06:49:59.811Z,2.58
2023-02-07T06:51:01.613Z,2.90
2023-02-07T06:52:03.738Z,3.08
2023-02-07T06:53:05.739Z,4.97
2023-02-07T06:54:10.032Z,2.47
2023-02-07T06:55:11.803Z,3.60
2023-02-07T06:56:13.598Z,3.97
2023-02-07T06:57:16.043Z,2.75
2023-02-07T06:58:17.774Z,3.92
2023-02-07T06:59:19.784Z,2.95
2023-02-07T07:00:22.949Z,2.38
2023-02-07T07:01:24.784Z,4.10
2023-02-07T07:02:26.837Z,3.97
2023-02-07T07:03:29.525Z,3.58
2023-02-07T07:04:31.709Z,3.58
2023-02-07T07:05:33.692Z,4.10
2023-02-07T07:06:35.543Z,5.43
2023-02-07T07:07:37.507Z,4.47
2023-02-07T07:08:39.339Z,4.30
2023-02-07T07:09:41.114Z,5.00
2023-02-07T07:10:42.890Z,3.70
2023-02-07T07:11:44.872Z,3.03
2023-02-07T07:12:47.642Z,3.67
2023-02-07T07:13:49.436Z,3.53
2023-02-07T07:14:51.103Z,5.38
2023-02-07T07:15:52.897Z,3.95
2023-02-07T07:16:56.798Z,4.47
2023-02-07T07:17:58.776Z,3.60
2023-02-07T07:19:01.056Z,5.43
2023-02-07T07:20:03.138Z,4.45
2023-02-07T07:21:07.575Z,2.83
2023-02-07T07:22:09.421Z,5.53
2023-02-07T07:23:11.240Z,3.40
2023-02-07T07:24:13.154Z,4.05
2023-02-07T07:25:14.949Z,3.92
2023-02-07T07:26:16.735Z,5.20
2023-02-07T07:27:19.205Z,4.20
2023-02-07T07:28:21.507Z,5.45
2023-02-07T07:29:23.531Z,4.18
2023-02-07T07:30:25.421Z,6.05
2023-02-07T07:31:27.711Z,4.82
2023-02-07T07:32:34.182Z,7.97
2023-02-07T07:33:37.104Z,5.25
2023-02-07T07:34:39.303Z,3.85
2023-02-07T07:35:41.313Z,5.18
2023-02-07T07:36:45.627Z,3.65
2023-02-07T07:37:47.899Z,5.00
2023-02-07T07:38:51.224Z,4.72
2023-02-07T07:39:54.122Z,5.05
2023-02-07T07:40:57.394Z,5.28
2023-02-07T07:42:01.455Z,6.13
2023-02-07T07:43:22.317Z,5.30
2023-02-07T07:44:25.052Z,4.72
2023-02-07T07:45:26.900Z,3.90
2023-02-07T07:46:29.182Z,3.85
2023-02-07T07:47:31.166Z,5.28
2023-02-07T07:48:33.051Z,4.10
2023-02-07T07:49:34.851Z,4.85
2023-02-07T07:50:36.624Z,4.47
2023-02-07T07:51:38.567Z,4.55
2023-02-07T07:52:40.500Z,4.22
2023-02-07T07:53:42.517Z,4.33
2023-02-07T07:54:44.550Z,3.90
2023-02-07T07:55:51.653Z,5.15
2023-02-07T07:56:53.589Z,4.57
2023-02-07T07:57:55.387Z,5.38
2023-02-07T07:58:57.681Z,4.00
2023-02-07T07:59:59.517Z,4.80
2023-02-07T08:01:01.330Z,5.95
2023-02-07T08:02:03.174Z,4.63
2023-02-07T08:03:05.007Z,4.03
2023-02-07T08:04:06.873Z,5.80
2023-02-07T08:05:11.939Z,6.18
2023-02-07T08:06:15.285Z,4.95
2023-02-07T08:07:17.563Z,4.57
2023-02-07T08:08:22.532Z,4.70
2023-02-07T08:09:24.388Z,4.00
2023-02-07T08:10:26.115Z,5.65
2023-02-07T08:11:28.028Z,5.05
2023-02-07T08:12:29.963Z,5.25
2023-02-07T08:13:32.997Z,5.40
2023-02-07T08:14:35.102Z,4.43
2023-02-07T08:15:37.421Z,4.43
2023-02-07T08:16:39.484Z,3.55
2023-02-07T08:17:44.283Z,6.07
2023-02-07T08:18:46.238Z,5.32
2023-02-07T08:19:47.990Z,7.53
2023-02-07T08:20:51.916Z,4.90
2023-02-07T08:21:53.627Z,6.22
2023-02-07T08:22:55.655Z,5.47
2023-02-07T08:24:01.820Z,4.30
2023-02-07T08:25:04.075Z,4.83
2023-02-07T08:26:07.927Z,5.05
2023-02-07T08:27:11.455Z,5.97
2023-02-07T08:28:13.976Z,4.93
2023-02-07T08:29:15.871Z,5.60
2023-02-07T08:30:18.931Z,4.27
2023-02-07T08:31:20.820Z,5.38
2023-02-07T08:32:23.113Z,6.85
2023-02-07T08:33:26.124Z,6.97
2023-02-07T08:34:28.993Z,6.07
2023-02-07T08:35:30.870Z,4.83
2023-02-07T08:36:32.797Z,6.40
2023-02-07T08:37:34.600Z,6.38
2023-02-07T08:38:36.399Z,5.43
2023-02-07T08:39:38.102Z,5.22
2023-02-07T08:40:40.249Z,4.10
2023-02-07T08:41:42.530Z,5.00
2023-02-07T08:42:44.614Z,6.57
2023-02-07T08:43:46.418Z,5.78
2023-02-07T08:44:49.965Z,7.82
2023-02-07T08:45:52.557Z,4.20
2023-02-07T08:46:54.478Z,5.05
2023-02-07T08:47:56.738Z,5.93
2023-02-07T08:48:58.787Z,6.07
2023-02-07T08:50:00.576Z,6.05
2023-02-07T08:51:08.097Z,6.80
2023-02-07T08:52:10.732Z,5.68
2023-02-07T08:53:12.875Z,4.63
2023-02-07T08:54:14.584Z,5.00
2023-02-07T08:55:16.836Z,5.10
2023-02-07T08:56:18.738Z,3.43
2023-02-07T08:57:24.528Z,3.95
2023-02-07T08:58:26.513Z,5.55
2023-02-07T08:59:28.488Z,6.00
2023-02-07T09:00:30.292Z,5.60
2023-02-07T09:01:32.442Z,5.30
2023-02-07T09:02:34.434Z,5.70
2023-02-07T09:03:36.395Z,5.32
2023-02-07T09:04:38.139Z,4.65
2023-02-07T09:05:40.116Z,4.18
2023-02-07T09:06:42.080Z,4.97
2023-02-07T09:07:44.694Z,5.82
2023-02-07T09:08:46.732Z,5.47
2023-02-07T09:09:48.604Z,4.82
2023-02-07T09:10:50.694Z,5.63
2023-02-07T09:11:52.705Z,4.10
2023-02-07T09:12:54.440Z,4.00
2023-02-07T09:13:56.493Z,5.05
2023-02-07T09:14:58.260Z,4.20
2023-02-07T09:16:00.188Z,5.90
2023-02-07T09:17:02.111Z,4.90
2023-02-07T09:18:04.135Z,4.22
2023-02-07T09:19:06.451Z,5.68
2023-02-07T09:20:08.636Z,6.00
2023-02-07T09:21:10.468Z,5.05
2023-02-07T09:22:12.276Z,3.50
2023-02-07T09:23:19.993Z,3.67
2023-02-07T09:24:21.813Z,4.22
2023-02-07T09:25:24.658Z,3.22
2023-02-07T09:26:26.829Z,4.18
2023-02-07T09:27:28.708Z,5.03
2023-02-07T09:28:31.566Z,4.10
2023-02-07T09:29:33.499Z,4.07
2023-02-07T09:30:35.330Z,3.40
2023-02-07T09:31:37.151Z,3.78
2023-02-07T09:32:39.144Z,5.13
2023-02-07T09:33:42.253Z,3.45
2023-02-07T09:34:44.143Z,4.55
2023-02-07T09:35:47.072Z,3.75
2023-02-07T09:36:50.243Z,5.18
2023-02-07T09:37:54.913Z,3.13
2023-02-07T09:38:56.975Z,2.80
2023-02-07T09:39:58.939Z,4.78
2023-02-07T09:41:00.862Z,4.35
2023-02-07T09:42:27.983Z,4.25
2023-02-07T09:43:38.814Z,3.70
2023-02-07T09:44:59.838Z,4.68
2023-02-07T09:46:07.220Z,3.83
2023-02-07T09:47:19.477Z,5.32
2023-02-07T09:48:25.460Z,4.35
2023-02-07T09:49:37.165Z,5.97
2023-02-07T09:50:45.782Z,4.03
2023-02-07T09:51:48.890Z,5.35
2023-02-07T09:52:54.040Z,5.25
2023-02-07T09:54:01.520Z,4.47
2023-02-07T09:55:05.543Z,3.87
2023-02-07T09:56:08.773Z,5.07
2023-02-07T09:57:17.935Z,4.40
2023-02-07T09:58:45.271Z,4.18
2023-02-07T09:59:57.863Z,2.97
2023-02-07T10:01:19.278Z,4.67
2023-02-07T10:02:27.513Z,3.60
2023-02-07T10:03:31.750Z,5.43
2023-02-07T10:04:41.119Z,5.18
2023-02-07T10:05:46.405Z,3.47
2023-02-07T10:06:52.985Z,3.77
2023-02-07T10:07:54.874Z,5.05
2023-02-07T10:08:59.773Z,5.25
2023-02-07T10:10:01.551Z,4.80
2023-02-07T10:11:12.819Z,4.97
2023-02-07T10:12:45.088Z,4.57
2023-02-07T10:14:20.679Z,2.97
2023-02-07T10:15:43.042Z,3.33
2023-02-07T10:17:31.079Z,4.13
2023-02-07T10:18:47.041Z,4.45
2023-02-07T10:20:06.991Z,2.90
2023-02-07T10:21:27.568Z,2.75
2023-02-07T10:22:48.034Z,3.95
2023-02-07T10:24:09.727Z,2.97
2023-02-07T10:25:41.219Z,4.25
2023-02-07T10:26:47.026Z,3.20
2023-02-07T10:28:03.840Z,3.80
2023-02-07T10:29:21.709Z,4.45
2023-02-07T10:30:31.866Z,4.00
2023-02-07T10:31:39.548Z,4.10
2023-02-07T10:32:43.523Z,4.50
2023-02-07T10:33:58.286Z,3.58
2023-02-07T10:35:05.623Z,4.50
2023-02-07T10:36:14.891Z,3.13
2023-02-07T10:37:20.960Z,4.50
2023-02-07T10:38:52.138Z,4.33
2023-02-07T10:40:24.418Z,2.92
2023-02-07T10:41:38.099Z,3.05
2023-02-07T10:42:42.346Z,3.67
2023-02-07T10:43:47.235Z,4.38
2023-02-07T10:44:49.227Z,2.47
2023-02-07T10:46:04.663Z,3.35
2023-02-07T10:47:07.749Z,3.55
2023-02-07T10:48:16.698Z,2.58
2023-02-07T10:49:25.753Z,2.90
2023-02-07T10:50:30.506Z,2.43
2023-02-07T10:51:38.533Z,2.40
2023-02-07T10:52:44.785Z,2.83
2023-02-07T10:54:00.455Z,2.40
2023-02-07T10:55:05.546Z,3.50
2023-02-07T10:56:16.637Z,2.93
2023-02-07T10:57:20.099Z,3.13
2023-02-07T10:58:25.380Z,2.72
2023-02-07T10:59:45.629Z,2.58
2023-02-07T11:00:49.894Z,3.17
2023-02-07T11:01:54.692Z,2.70
2023-02-07T11:03:20.829Z,3.13
2023-02-07T11:04:27.303Z,3.92
2023-02-07T11:05:32.777Z,3.35
2023-02-07T11:06:37.270Z,3.45
2023-02-07T11:07:47.490Z,4.07
2023-02-07T11:08:50.032Z,2.40
2023-02-07T11:09:52.288Z,2.42
2023-02-07T11:10:59.331Z,2.25
2023-02-07T11:12:12.801Z,2.85
2023-02-07T11:13:17.973Z,3.23
2023-02-07T11:14:28.743Z,2.63
2023-02-07T11:15:40.248Z,3.42
2023-02-07T11:16:44.906Z,2.78
2023-02-07T11:17:51.433Z,2.90
2023-02-07T11:19:07.228Z,2.37
2023-02-07T11:20:30.606Z,2.53
2023-02-07T11:21:40.087Z,3.30
2023-02-07T11:22:42.469Z,2.22
2023-02-07T11:23:45.172Z,2.95
2023-02-07T11:24:49.399Z,2.37
2023-02-07T11:25:57.356Z,3.78
2023-02-07T11:27:15.828Z,2.70
2023-02-07T11:28:32.660Z,2.58
2023-02-07T11:29:43.841Z,3.55
2023-02-07T11:30:46.662Z,3.23
2023-02-07T11:31:53.254Z,2.33
2023-02-07T11:33:03.317Z,3.92
2023-02-07T11:34:44.159Z,3.33
2023-02-07T11:36:17.277Z,2.35
2023-02-07T11:37:35.709Z,2.40
2023-02-07T11:38:49.528Z,2.65
2023-02-07T11:39:53.796Z,3.20
2023-02-07T11:40:59.332Z,2.20
2023-02-07T11:42:02.284Z,2.80
2023-02-07T11:43:13.476Z,3.07
2023-02-07T11:44:17.570Z,2.28
2023-02-07T11:45:24.302Z,2.90
2023-02-07T11:46:36.795Z,2.60
2023-02-07T11:47:46.261Z,3.17
2023-02-07T11:48:51.654Z,2.97
2023-02-07T11:50:00.119Z,3.30
2023-02-07T11:51:05.453Z,3.67
2023-02-07T11:52:09.474Z,2.35
2023-02-07T11:53:24.725Z,2.50
2023-02-07T11:54:29.759Z,1.80
2023-02-07T11:55:41.615Z,2.95
2023-02-07T11:56:48.653Z,2.75
2023-02-07T11:57:50.619Z,2.13
2023-02-07T11:58:54.346Z,3.47
2023-02-07T12:00:17.064Z,2.63
2023-02-07T12:01:24.515Z,3.22
2023-02-07T12:02:28.974Z,3.45
2023-02-07T12:03:43.395Z,2.75
2023-02-07T12:04:46.124Z,3.53
2023-02-07T12:05:53.720Z,3.40
2023-02-07T12:07:38.431Z,2.38
2023-02-07T12:08:41.589Z,3.55
2023-02-07T12:09:54.603Z,3.00
2023-02-07T12:11:02.307Z,2.58
2023-02-07T12:12:10.069Z,2.20
2023-02-07T12:13:29.800Z,2.38
2023-02-07T12:14:39.095Z,3.53
2023-02-07T12:15:47.450Z,2.55
2023-02-07T12:16:56.656Z,2.40
2023-02-07T12:18:15.072Z,2.83
2023-02-07T12:19:23.221Z,2.38
2023-02-07T12:20:52.774Z,1.75
2023-02-07T12:22:01.041Z,2.75
2023-02-07T12:23:43.032Z,2.22
2023-02-07T12:24:59.753Z,2.13
2023-02-07T12:26:17.747Z,1.80
2023-02-07T12:27:20.270Z,2.25
2023-02-07T12:29:13.650Z,2.85
2023-02-07T12:30:41.524Z,3.30
2023-02-07T12:32:26.986Z,1.63
2023-02-07T12:33:43.052Z,2.15
2023-02-07T12:34:54.944Z,3.53
2023-02-07T12:36:15.653Z,2.67
2023-02-07T12:37:36.884Z,2.72
2023-02-07T12:38:58.257Z,2.13
2023-02-07T12:40:10.420Z,2.45
2023-02-07T12:41:45.558Z,2.20
2023-02-07T12:43:22.965Z,3.20
2023-02-07T12:44:35.872Z,1.55
2023-02-07T12:45:51.632Z,2.43
2023-02-07T12:46:59.034Z,2.55
2023-02-07T12:48:00.978Z,2.13
2023-02-07T12:49:38.249Z,2.45
2023-02-07T12:51:11.049Z,2.30
2023-02-07T12:52:42.194Z,1.83
2023-02-07T12:54:08.446Z,1.92
2023-02-07T12:55:20.659Z,2.65
2023-02-07T12:56:49.447Z,2.50
2023-02-07T12:58:28.945Z,2.95
2023-02-07T12:59:33.657Z,1.93
2023-02-07T13:00:50.759Z,2.05
2023-02-07T13:02:26.654Z,3.22
2023-02-07T13:04:00.899Z,2.42
2023-02-07T13:05:28.169Z,2.05
2023-02-07T13:06:41.007Z,2.97
2023-02-07T13:07:46.337Z,2.35
2023-02-07T13:09:10.110Z,2.70
2023-02-07T13:10:38.610Z,1.83
2023-02-07T13:12:17.909Z,2.33
2023-02-07T13:13:32.744Z,1.77
2023-02-07T13:14:56.058Z,2.00
2023-02-07T13:16:00.942Z,2.13
2023-02-07T13:17:31.229Z,1.80
2023-02-07T13:18:57.603Z,2.17
2023-02-07T13:20:16.131Z,1.63
2023-02-07T13:21:31.145Z,2.08
2023-02-07T13:22:45.979Z,2.65
2023-02-07T13:23:49.825Z,1.83
2023-02-07T13:24:57.063Z,2.42
2023-02-07T13:26:03.756Z,1.80
2023-02-07T13:27:10.821Z,2.47
2023-02-07T13:28:27.462Z,2.28
2023-02-07T13:29:34.242Z,2.17
2023-02-07T13:30:37.117Z,2.47
2023-02-07T13:32:02.816Z,1.80
2023-02-07T13:33:24.851Z,1.27
2023-02-07T13:34:32.594Z,1.58
2023-02-07T13:35:39.054Z,1.70
2023-02-07T13:36:52.694Z,1.63
2023-02-07T13:38:17.840Z,2.07
2023-02-07T13:39:41.709Z,1.38
2023-02-07T13:41:20.272Z,1.05
2023-02-07T13:42:22.221Z,1.20
2023-02-07T13:43:43.964Z,2.17
2023-02-07T13:45:14.403Z,1.27
2023-02-07T13:46:56.526Z,1.73
2023-02-07T13:48:09.375Z,1.85
2023-02-07T13:49:28.897Z,1.85
2023-02-07T13:50:51.556Z,2.20
2023-02-07T13:52:14.933Z,1.97
2023-02-07T13:53:36.451Z,2.20
2023-02-07T13:55:15.141Z,1.88
2023-02-07T13:56:35.356Z,1.98
2023-02-07T13:58:01.563Z,2.17
2023-02-07T13:59:22.505Z,1.87
2023-02-07T14:00:30.825Z,2.35
2023-02-07T14:01:33.421Z,1.85
2023-02-07T14:02:42.225Z,1.95
2023-02-07T14:04:05.747Z,2.40
2023-02-07T14:05:11.265Z,2.63
2023-02-07T14:06:32.971Z,1.55
2023-02-07T14:07:38.366Z,2.30
2023-02-07T14:08:40.433Z,1.60
2023-02-07T14:09:50.218Z,2.22
2023-02-07T14:11:17.318Z,1.97
2023-02-07T14:12:31.497Z,3.15
2023-02-07T14:13:34.880Z,2.80
2023-02-07T14:14:39.869Z,2.50
2023-02-07T14:15:44.076Z,2.40
2023-02-07T14:16:51.763Z,1.93
2023-02-07T14:18:05.152Z,2.47
2023-02-07T14:19:12.910Z,2.67
2023-02-07T14:20:36.234Z,2.55
2023-02-07T14:21:43.903Z,2.22
2023-02-07T14:22:51.857Z,2.10
2023-02-07T14:24:09.147Z,2.95
2023-02-07T14:25:18.070Z,2.10
2023-02-07T14:26:38.281Z,2.17
2023-02-07T14:27:43.071Z,2.50
2023-02-07T14:28:46.396Z,1.50
2023-02-07T14:30:01.538Z,1.50
2023-02-07T14:31:21.948Z,2.08
2023-02-07T14:32:28.928Z,1.95
2023-02-07T14:33:37.952Z,2.67
2023-02-07T14:35:01.507Z,1.20
2023-02-07T14:36:12.558Z,1.85
2023-02-07T14:37:51.875Z,1.02
2023-02-07T14:39:04.744Z,1.95
2023-02-07T14:40:09.713Z,1.83
2023-02-07T14:41:14.482Z,1.83
2023-02-07T14:42:21.976Z,1.52
2023-02-07T14:43:39.938Z,1.98
2023-02-07T14:44:45.115Z,1.83
2023-02-07T14:46:06.051Z,3.15
2023-02-07T14:47:15.726Z,1.90
2023-02-07T14:48:42.390Z,2.22
2023-02-07T14:49:49.168Z,2.05
2023-02-07T14:50:54.882Z,2.13
2023-02-07T14:52:05.057Z,2.00
2023-02-07T14:53:14.470Z,2.43
2023-02-07T14:54:46.733Z,2.25
2023-02-07T14:55:56.633Z,2.65
2023-02-07T14:57:22.497Z,1.73
2023-02-07T14:58:33.188Z,2.38
2023-02-07T15:00:00.449Z,2.83
2023-02-07T15:01:02.602Z,1.67